Time;durP1;ratioP1;P1;durP2;ratioP2;P2;SDS_P1;SDS_P2;PMS_P1;PMS_P2;Temp;Humidity;BMP_temperature;BMP_pressure;BME280_temperature;BME280_humidity;BME280_pressure;Samples;Min_cycle;Max_cycle;Signal;HPM_P1;HPM_P2
2022/05/23 00:02:18;;;;;;;4.63;4.23;;;;;;;11.16;100.00;95843.94;5076045;28;20444;-76
2022/05/23 00:04:46;;;;;;;6.47;4.40;;;;;;;11.54;100.00;95885.69;5055888;28;20437;-76
2022/05/23 00:07:28;;;;;;;5.43;4.40;;;;;;;11.56;100.00;95891.41;5075411;28;20431;-76
2022/05/23 00:09:55;;;;;;;8.13;4.83;;;;;;;11.36;100.00;95850.09;5059350;28;20493;-76
2022/05/23 00:12:22;;;;;;;4.60;4.20;;;;;;;11.61;100.00;95885.06;5071935;28;20464;-77
2022/05/23 00:14:50;;;;;;;6.10;4.30;;;;;;;11.58;100.00;95877.81;5072215;28;20437;-76
2022/05/23 00:17:18;;;;;;;4.03;3.70;;;;;;;11.75;100.00;95875.59;5073341;28;20478;-76
2022/05/23 00:19:46;;;;;;;6.10;5.47;;;;;;;11.78;100.00;95876.78;5082775;28;20551;-76
2022/05/23 00:22:16;;;;;;;4.80;4.40;;;;;;;11.81;100.00;95870.81;5070044;28;20482;-77
2022/05/23 00:24:44;;;;;;;4.90;4.50;;;;;;;11.73;100.00;95872.50;5070904;28;20463;-76
2022/05/23 00:27:17;;;;;;;5.83;4.40;;;;;;;11.76;100.00;95857.81;5070957;28;20849;-76
2022/05/23 00:29:49;;;;;;;9.17;3.90;;;;;;;11.59;100.00;95821.88;5070979;28;20439;-76
2022/05/23 00:35:18;;;;;;;4.83;4.07;;;;;;;11.91;100.00;95850.97;5070978;28;20454;-76
2022/05/23 00:37:58;;;;;;;6.30;4.00;;;;;;;11.69;100.00;95818.69;5070941;28;20441;-76
2022/05/23 00:40:28;;;;;;;4.53;3.93;;;;;;;11.94;100.00;95851.06;5075658;28;20549;-76
2022/05/23 00:43:15;;;;;;;4.00;3.70;;;;;;;11.81;100.00;95820.50;5058574;28;20457;-76
2022/05/23 00:45:52;;;;;;;4.40;4.00;;;;;;;11.77;100.00;95827.56;5059252;28;20498;-76
2022/05/23 00:48:26;;;;;;;4.47;4.07;;;;;;;11.90;100.00;95857.41;5053902;28;20459;-77
2022/05/23 00:50:58;;;;;;;4.70;4.40;;;;;;;11.72;100.00;95831.25;5081334;28;20435;-76
2022/05/23 00:53:36;;;;;;;4.40;4.00;;;;;;;11.59;100.00;95815.81;5060715;28;20825;-77
2022/05/23 00:56:06;;;;;;;4.50;4.20;;;;;;;11.91;100.00;95854.41;5077072;28;20931;-76
2022/05/23 00:58:39;;;;;;;4.63;4.23;;;;;;;11.94;100.00;95866.94;5070646;28;20483;-77
2022/05/23 01:01:09;;;;;;;6.03;4.10;;;;;;;11.83;100.00;95853.47;5070515;28;20472;-76
2022/05/23 01:03:36;;;;;;;7.80;4.93;;;;;;;11.85;100.00;95850.47;5070458;28;20436;-76
2022/05/23 01:06:05;;;;;;;4.33;3.93;;;;;;;11.78;100.00;95835.19;5087283;28;20440;-77
2022/05/23 01:08:35;;;;;;;4.60;3.70;;;;;;;11.89;100.00;95866.47;5074987;28;20420;-76
2022/05/23 01:11:03;;;;;;;3.90;3.60;;;;;;;11.98;100.00;95869.66;5070053;28;21007;-77
2022/05/23 01:13:30;;;;;;;3.37;3.07;;;;;;;11.53;100.00;95853.16;5070242;28;20456;-76
2022/05/23 01:15:57;;;;;;;6.70;4.67;;;;;;;10.83;100.00;95839.75;5071524;28;20433;-76
2022/05/23 01:18:27;;;;;;;5.37;4.73;;;;;;;10.77;100.00;95816.53;5070200;28;20444;-78
2022/05/23 01:21:01;;;;;;;6.93;4.17;;;;;;;10.91;100.00;95787.78;5070149;28;20439;-76
2022/05/23 01:23:39;;;;;;;5.57;5.03;;;;;;;11.41;100.00;95852.47;5070443;28;20456;-76
2022/05/23 01:26:20;;;;;;;4.83;4.43;;;;;;;11.17;100.00;95842.81;5059193;28;20451;-76
2022/05/23 01:28:51;;;;;;;4.60;4.20;;;;;;;10.88;100.00;95847.41;5070576;28;20521;-76
2022/05/23 01:31:36;;;;;;;5.80;4.90;;;;;;;11.15;100.00;95884.75;5069924;28;20483;-76
2022/05/23 01:34:13;;;;;;;4.80;4.40;;;;;;;10.64;100.00;95840.38;5070828;28;21181;-76
2022/05/23 01:37:00;;;;;;;5.90;5.17;;;;;;;11.01;100.00;95887.78;5070406;28;20440;-76
2022/05/23 01:39:47;;;;;;;4.43;4.13;;;;;;;10.54;100.00;95851.44;5061002;28;20475;-76
2022/05/23 01:42:21;;;;;;;4.47;4.00;;;;;;;9.89;100.00;95810.38;5058156;28;20469;-76
2022/05/23 01:44:47;;;;;;;4.60;4.17;;;;;;;9.97;100.00;95820.78;5069954;28;20556;-76
2022/05/23 01:47:20;;;;;;;6.00;4.20;;;;;;;10.10;100.00;95860.38;5070307;28;20806;-76
2022/05/23 01:49:57;;;;;;;5.03;4.40;;;;;;;9.58;100.00;95758.16;5086813;28;20440;-76
2022/05/23 01:52:44;;;;;;;5.03;3.90;;;;;;;10.12;100.00;95829.09;5071122;28;20456;-76
2022/05/23 01:55:15;;;;;;;4.07;3.77;;;;;;;10.36;100.00;95868.69;5057178;28;20467;-76
2022/05/23 01:57:56;;;;;;;6.20;4.73;;;;;;;10.45;100.00;95845.53;5070011;28;20444;-76
2022/05/23 02:03:09;;;;;;;8.90;4.97;;;;;;;10.55;100.00;95812.53;5069745;28;20960;-76
2022/05/23 02:05:36;;;;;;;4.63;4.23;;;;;;;10.38;100.00;95816.25;5070088;28;20436;-76
2022/05/23 02:08:03;;;;;;;4.63;4.23;;;;;;;10.48;100.00;95852.78;5069913;28;21095;-76
2022/05/23 02:10:30;;;;;;;7.23;4.87;;;;;;;10.64;100.00;95858.88;5070061;28;20432;-76
2022/05/23 02:13:02;;;;;;;5.17;4.73;;;;;;;10.08;100.00;95784.09;5053709;28;20476;-77
2022/05/23 02:15:32;;;;;;;4.73;4.37;;;;;;;10.13;100.00;95833.28;5069742;28;20451;-76
2022/05/23 02:18:30;;;;;;;8.93;4.37;;;;;;;10.13;100.00;95828.00;5069717;28;20457;-77
2022/05/23 02:20:57;;;;;;;9.03;4.43;;;;;;;10.09;100.00;95843.75;5070770;28;20436;-76
2022/05/23 02:23:24;;;;;;;4.87;4.37;;;;;;;10.00;100.00;95804.25;5069763;28;20448;-76
2022/05/23 02:25:51;;;;;;;5.50;5.10;;;;;;;9.99;100.00;95799.31;5086695;28;20514;-76
2022/05/23 02:28:38;;;;;;;18.63;5.53;;;;;;;9.99;100.00;95817.78;5071240;28;20440;-76
2022/05/23 02:31:05;;;;;;;4.83;4.43;;;;;;;9.69;100.00;95785.63;5069826;28;20807;-76
2022/05/23 02:33:45;;;;;;;4.20;3.70;;;;;;;10.10;100.00;95834.72;5069836;28;20542;-76
2022/05/23 02:36:35;;;;;;;4.40;4.10;;;;;;;10.07;100.00;95816.91;5069919;28;20513;-76
2022/05/23 02:39:03;;;;;;;4.57;4.17;;;;;;;9.71;100.00;95794.75;5049646;28;20591;-76
2022/05/23 02:41:30;;;;;;;4.63;4.23;;;;;;;9.85;100.00;95810.25;5063813;28;20460;-76
2022/05/23 02:43:58;;;;;;;4.27;3.93;;;;;;;9.55;100.00;95764.88;5070553;28;20437;-76
2022/05/23 02:46:28;;;;;;;4.37;4.07;;;;;;;9.59;100.00;95821.16;5073498;28;20451;-76
2022/05/23 02:49:02;;;;;;;5.17;4.77;;;;;;;9.44;100.00;95751.38;5084518;28;20899;-76
2022/05/23 02:51:29;;;;;;;4.23;3.90;;;;;;;9.77;100.00;95798.72;5060117;28;20461;-76
2022/05/23 02:53:58;;;;;;;6.20;4.80;;;;;;;9.86;100.00;95809.13;5057027;28;20862;-76
2022/05/23 02:56:29;;;;;;;9.40;4.80;;;;;;;9.73;100.00;95824.22;5073105;28;20444;-77
2022/05/23 02:58:56;;;;;;;5.53;5.03;;;;;;;9.29;100.00;95765.25;5073011;28;20447;-76
2022/05/23 03:01:22;;;;;;;8.50;5.40;;;;;;;9.35;100.00;95792.97;5072836;28;20462;-76
2022/05/23 03:03:49;;;;;;;5.57;4.87;;;;;;;9.33;100.00;95818.88;5073459;28;20440;-76
2022/05/23 03:06:16;;;;;;;7.83;4.50;;;;;;;9.22;100.00;95817.78;5072951;28;20471;-76
2022/05/23 03:08:44;;;;;;;7.07;5.10;;;;;;;9.21;100.00;95789.09;5085022;28;20903;-75
2022/05/23 03:11:11;;;;;;;5.73;5.23;;;;;;;9.15;100.00;95759.53;5074670;28;20448;-76
2022/05/23 03:13:37;;;;;;;5.40;4.30;;;;;;;9.51;100.00;95798.31;5074224;28;20844;-76
2022/05/23 03:16:10;;;;;;;6.63;4.40;;;;;;;9.46;100.00;95759.72;5056319;28;20501;-76
2022/05/23 03:18:39;;;;;;;5.20;4.80;;;;;;;9.62;100.00;95764.34;5052803;28;20937;-76
2022/05/23 03:21:08;;;;;;;8.53;4.43;;;;;;;9.28;100.00;95716.22;5072802;28;20464;-76
2022/05/23 03:29:14;;;;;;;4.90;4.50;;;;;;;9.72;100.00;95735.59;5072507;28;20437;-77
2022/05/23 03:31:45;;;;;;;7.23;5.50;;;;;;;9.55;100.00;95732.44;5053155;28;20461;-79
2022/05/23 03:34:12;;;;;;;7.13;5.27;;;;;;;9.80;100.00;95752.41;5059250;28;21010;-79
2022/05/23 03:36:38;;;;;;;4.83;4.53;;;;;;;9.68;100.00;95757.72;5076026;28;20441;-79
2022/05/23 03:39:05;;;;;;;5.83;5.20;;;;;;;9.92;100.00;95762.94;5092781;28;20471;-79
2022/05/23 03:41:32;;;;;;;4.57;4.17;;;;;;;9.96;100.00;95755.88;5075421;28;20491;-79
2022/05/23 03:43:59;;;;;;;6.47;5.27;;;;;;;9.27;100.00;95725.25;5075601;28;20440;-79
2022/05/23 03:46:27;;;;;;;5.03;4.63;;;;;;;9.49;100.00;95737.19;5057185;28;21013;-79
2022/05/23 03:48:55;;;;;;;7.23;5.43;;;;;;;9.42;100.00;95761.50;5075734;28;20534;-79
2022/05/23 03:51:22;;;;;;;4.50;4.10;;;;;;;9.51;100.00;95734.22;5092336;28;20471;-79
2022/05/23 03:53:50;;;;;;;5.10;4.60;;;;;;;9.83;100.00;95785.28;5075937;28;20521;-79
2022/05/23 03:56:17;;;;;;;6.50;5.27;;;;;;;10.09;100.00;95777.72;5089133;28;20443;-79
2022/05/23 03:58:48;;;;;;;5.67;4.73;;;;;;;9.83;100.00;95749.09;5075347;28;20443;-79
2022/05/23 04:01:25;;;;;;;5.30;4.80;;;;;;;9.78;100.00;95762.53;5075453;28;20463;-79
2022/05/23 04:03:57;;;;;;;5.53;5.13;;;;;;;9.70;100.00;95781.91;5089840;28;20413;-79
2022/05/23 04:06:27;;;;;;;5.80;5.30;;;;;;;9.33;100.00;95758.19;5063156;28;20446;-78
2022/05/23 04:08:57;;;;;;;4.50;4.20;;;;;;;9.43;100.00;95738.53;5064538;28;20437;-78
2022/05/23 04:11:24;;;;;;;6.73;5.77;;;;;;;9.78;100.00;95767.81;5056788;28;21010;-79
2022/05/23 04:13:57;;;;;;;6.00;5.30;;;;;;;9.48;100.00;95714.53;5072593;28;20475;-78
2022/05/23 04:16:29;;;;;;;4.90;4.50;;;;;;;9.72;100.00;95738.22;5073631;28;20448;-79
2022/05/23 04:18:57;;;;;;;9.50;4.90;;;;;;;10.08;100.00;95755.81;5073688;28;20444;-79
2022/05/23 04:21:24;;;;;;;5.33;4.80;;;;;;;9.77;100.00;95745.94;5073700;28;20870;-79
2022/05/23 04:23:53;;;;;;;6.13;5.53;;;;;;;10.27;100.00;95749.16;5087116;28;20493;-79
2022/05/23 04:26:20;;;;;;;10.63;6.30;;;;;;;10.42;100.00;95763.53;5074018;28;20432;-79
2022/05/23 04:28:47;;;;;;;5.67;5.10;;;;;;;10.47;100.00;95760.63;5077614;28;20439;-79
2022/05/23 04:31:14;;;;;;;5.40;5.00;;;;;;;10.45;100.00;95734.53;5081976;28;20452;-79
2022/05/23 04:37:12;;;;;;;5.20;4.80;;;;;;;10.77;100.00;95713.41;5020863;28;20443;-78
2022/05/23 04:39:43;;;;;;;7.63;5.40;;;;;;;10.60;100.00;95710.00;5051717;28;20464;-79
2022/05/23 04:42:10;;;;;;;5.03;4.63;;;;;;;10.77;100.00;95739.84;5064198;28;20457;-77
2022/05/23 04:44:38;;;;;;;6.10;5.53;;;;;;;10.48;100.00;95718.00;5070518;28;20438;-76
2022/05/23 04:49:52;;;;;;;5.40;4.90;;;;;;;10.58;100.00;95708.81;5072764;28;20793;-77
2022/05/23 04:52:35;;;;;;;6.30;4.60;;;;;;;10.58;100.00;95712.22;5078811;28;20455;-77
2022/05/23 04:55:03;;;;;;;5.70;5.10;;;;;;;10.42;100.00;95700.09;5070160;28;20447;-77
2022/05/23 04:57:33;;;;;;;5.43;4.93;;;;;;;10.82;100.00;95726.38;5070510;28;20471;-77
2022/05/23 05:00:02;;;;;;;5.90;5.03;;;;;;;10.85;100.00;95709.81;5070370;28;20460;-77
2022/05/23 05:02:37;;;;;;;6.10;5.50;;;;;;;11.06;100.00;95712.94;5064715;28;20471;-76
2022/05/23 05:05:06;;;;;;;5.97;5.57;;;;;;;10.68;100.00;95683.72;5070668;28;20509;-77
2022/05/23 05:07:46;;;;;;;5.70;5.20;;;;;;;11.15;100.00;95678.38;5058694;28;20446;-77
2022/05/23 05:10:13;;;;;;;7.87;5.90;;;;;;;11.04;100.00;95653.56;5080443;28;20471;-77
2022/05/23 05:12:40;;;;;;;7.33;5.77;;;;;;;10.99;100.00;95678.41;5087024;28;21037;-77
2022/05/23 05:15:10;;;;;;;5.90;5.40;;;;;;;11.28;100.00;95710.78;5070382;28;20452;-76
2022/05/23 05:17:37;;;;;;;7.10;5.70;;;;;;;11.32;100.00;95716.91;5069543;28;20440;-77
2022/05/23 05:20:04;;;;;;;5.87;5.43;;;;;;;10.90;100.00;95643.44;5053463;28;20492;-77
2022/05/23 05:22:50;;;;;;;6.70;6.10;;;;;;;11.47;100.00;95705.50;5070226;28;20782;-77
2022/05/23 05:25:25;;;;;;;6.17;5.50;;;;;;;11.58;100.00;95703.84;5070236;28;20421;-77
2022/05/23 05:28:04;;;;;;;5.67;5.17;;;;;;;11.62;100.00;95680.88;5070034;28;20459;-76
2022/05/23 05:30:36;;;;;;;6.80;5.13;;;;;;;11.70;100.00;95689.72;5069964;28;20432;-76
2022/05/23 05:33:10;;;;;;;4.80;4.40;;;;;;;11.84;100.00;95706.66;5069865;28;20486;-76
2022/05/23 05:35:45;;;;;;;4.37;4.07;;;;;;;11.93;100.00;95693.22;5069892;28;20432;-77
2022/05/23 05:38:21;;;;;;;4.03;3.50;;;;;;;12.23;100.00;95703.97;5069919;28;20862;-76
2022/05/23 05:40:52;;;;;;;3.53;3.23;;;;;;;12.26;100.00;95690.03;5082423;28;20474;-76
2022/05/23 05:43:27;;;;;;;9.43;3.47;;;;;;;12.50;100.00;95730.59;5069777;28;20444;-76
2022/05/23 05:46:04;;;;;;;3.07;2.80;;;;;;;12.26;100.00;95683.97;5069946;28;20940;-77
2022/05/23 05:48:43;;;;;;;4.10;3.10;;;;;;;12.62;100.00;95719.81;5075735;28;20814;-77
2022/05/23 05:51:15;;;;;;;3.40;3.10;;;;;;;12.68;100.00;95719.13;5090706;28;20530;-78
2022/05/23 05:54:04;;;;;;;4.43;4.03;;;;;;;12.47;100.00;95659.72;5080909;28;20443;-77
2022/05/23 05:56:39;;;;;;;3.57;2.97;;;;;;;12.63;100.00;95670.94;5087510;28;20432;-78
2022/05/23 05:59:07;;;;;;;3.33;3.13;;;;;;;13.05;100.00;95725.78;5070323;28;20529;-77
2022/05/23 06:01:40;;;;;;;4.20;2.90;;;;;;;13.20;100.00;95707.06;5054174;28;20464;-78
2022/05/23 06:04:08;;;;;;;3.13;2.93;;;;;;;13.00;100.00;95660.50;5087873;28;20834;-76
2022/05/23 06:12:22;;;;;;;3.30;3.07;;;;;;;13.52;100.00;95728.00;5077467;28;20987;-78
2022/05/23 06:14:57;;;;;;;2.67;2.53;;;;;;;13.45;100.00;95711.97;5078325;28;20471;-78
2022/05/23 06:17:25;;;;;;;3.30;3.10;;;;;;;13.38;100.00;95720.63;5080226;28;20439;-78
2022/05/23 06:19:54;;;;;;;4.40;2.90;;;;;;;13.34;100.00;95711.06;5082916;28;20468;-77
2022/05/23 06:22:25;;;;;;;2.87;2.70;;;;;;;13.28;100.00;95681.41;5075593;28;20465;-78
2022/05/23 06:25:08;;;;;;;7.43;3.70;;;;;;;13.42;100.00;95732.03;5095221;28;20439;-77
2022/05/23 06:27:37;;;;;;;5.53;3.73;;;;;;;13.73;100.00;95738.13;5067005;28;20449;-77
2022/05/23 06:30:11;;;;;;;4.50;3.10;;;;;;;13.64;100.00;95748.28;5067140;28;20443;-79
2022/05/23 06:32:56;;;;;;;4.20;3.03;;;;;;;13.57;100.00;95743.63;5090310;28;20436;-78
2022/05/23 06:35:33;;;;;;;3.27;2.97;;;;;;;13.62;100.00;95732.69;5075663;28;20444;-79
2022/05/23 06:38:00;;;;;;;3.63;2.83;;;;;;;13.83;100.00;95748.13;5077051;28;20436;-79
2022/05/23 06:40:48;;;;;;;3.40;3.00;;;;;;;13.80;100.00;95749.63;5076602;28;20459;-78
2022/05/23 06:43:20;;;;;;;3.27;3.00;;;;;;;13.84;100.00;95744.34;5078452;28;20417;-79
2022/05/23 06:46:06;;;;;;;2.30;2.20;;;;;;;14.23;100.00;95774.06;5078378;28;20403;-79
2022/05/23 06:48:53;;;;;;;3.47;3.17;;;;;;;13.91;100.00;95725.84;5067393;28;20460;-79
2022/05/23 06:51:59;;;;;;;3.10;2.80;;;;;;;14.47;100.00;95768.28;5068224;28;20476;-79
2022/05/23 06:54:41;;;;;;;4.77;3.13;;;;;;;14.82;100.00;95788.34;5062261;28;20454;-78
2022/05/23 06:57:13;;;;;;;5.47;2.77;;;;;;;15.01;100.00;95774.09;5076459;28;20890;-79
2022/05/23 06:59:39;;;;;;;5.80;3.33;;;;;;;15.02;100.00;95797.69;5075812;28;20447;-78
2022/05/23 07:02:09;;;;;;;4.93;2.97;;;;;;;14.72;100.00;95741.91;5074524;28;20495;-78
2022/05/23 07:13:36;;;;;;;3.80;3.30;;;;;;;14.71;100.00;95780.28;5080244;28;21141;-78
2022/05/23 07:16:03;;;;;;;3.33;2.73;;;;;;;15.08;100.00;95840.69;5070926;28;20525;-77
2022/05/23 07:18:30;;;;;;;5.60;3.07;;;;;;;15.16;100.00;95844.97;5085710;28;20494;-78
2022/05/23 07:20:58;;;;;;;3.17;2.70;;;;;;;15.12;100.00;95843.41;5063216;28;20817;-77
2022/05/23 07:23:37;;;;;;;8.80;3.10;;;;;;;15.02;100.00;95824.31;5079910;28;20444;-77
2022/05/23 07:26:16;;;;;;;3.80;3.50;;;;;;;15.08;100.00;95819.41;5069156;28;20443;-77
2022/05/23 07:28:54;;;;;;;5.77;2.90;;;;;;;15.29;100.00;95830.25;5060826;28;20502;-78
2022/05/23 07:31:26;;;;;;;3.33;3.13;;;;;;;15.46;100.00;95871.47;5056233;28;20857;-77
2022/05/23 07:33:53;;;;;;;4.77;3.10;;;;;;;15.32;100.00;95848.16;5059603;28;20442;-77
2022/05/23 07:36:20;;;;;;;3.30;3.10;;;;;;;15.13;100.00;95831.63;5081932;28;20436;-77
2022/05/23 07:38:49;;;;;;;4.57;3.23;;;;;;;15.35;100.00;95857.28;5072334;28;20448;-77
2022/05/23 07:41:33;;;;;;;3.20;2.77;;;;;;;15.02;100.00;95792.34;5071109;28;20485;-77
2022/05/23 07:44:00;;;;;;;3.27;2.80;;;;;;;15.19;100.00;95806.19;5072775;28;20439;-77
2022/05/23 07:46:28;;;;;;;4.57;2.77;;;;;;;15.33;100.00;95807.06;5072788;28;20470;-77
2022/05/23 07:48:56;;;;;;;3.47;3.27;;;;;;;15.23;100.00;95815.75;5073864;28;20483;-78
2022/05/23 07:51:30;;;;;;;4.03;3.67;;;;;;;15.18;100.00;95816.06;5059307;28;20466;-77
2022/05/23 08:02:43;;;;;;;3.40;3.20;;;;;;;15.07;100.00;95777.94;5069067;28;20928;-77
2022/05/23 08:05:20;;;;;;;7.13;3.60;;;;;;;15.23;100.00;95777.69;5052905;28;20440;-78
2022/05/23 08:07:50;;;;;;;4.30;3.40;;;;;;;14.87;100.00;95752.69;5060204;28;20443;-77
2022/05/23 08:10:18;;;;;;;6.60;3.27;;;;;;;15.26;100.00;95784.94;5061259;28;20441;-77
2022/05/23 08:12:52;;;;;;;4.47;3.70;;;;;;;15.27;100.00;95773.91;5055254;28;20887;-78
2022/05/23 08:15:22;;;;;;;3.97;3.57;;;;;;;15.15;100.00;95771.53;5074277;28;20432;-78
2022/05/23 08:17:55;;;;;;;4.70;3.80;;;;;;;15.01;100.00;95742.13;5062155;28;20439;-77
2022/05/23 08:20:35;;;;;;;4.10;3.30;;;;;;;15.18;100.00;95743.41;5060119;28;20472;-78
2022/05/23 08:23:03;;;;;;;4.30;3.73;;;;;;;15.25;100.00;95746.88;5073782;28;21009;-78
2022/05/23 08:25:38;;;;;;;4.97;3.97;;;;;;;15.10;100.00;95755.91;5073212;28;20439;-78
2022/05/23 08:28:05;;;;;;;4.10;3.80;;;;;;;14.81;100.00;95722.94;5072786;28;20442;-78
2022/05/23 08:30:33;;;;;;;3.80;3.50;;;;;;;14.86;100.00;95706.66;5077168;28;20432;-77
2022/05/23 08:33:26;;;;;;;5.60;3.40;;;;;;;14.74;100.00;95699.72;5090589;28;20936;-78
2022/05/23 08:36:10;;;;;;;8.43;4.00;;;;;;;15.05;100.00;95701.09;5061288;28;20522;-78
2022/05/23 08:38:37;;;;;;;3.80;3.17;;;;;;;15.16;100.00;95703.81;5069590;28;20437;-78
2022/05/23 08:41:40;;;;;;;4.77;3.73;;;;;;;14.92;100.00;95683.88;5076401;28;20468;-78
2022/05/23 08:44:43;;;;;;;4.00;3.70;;;;;;;14.73;100.00;95620.25;4986481;28;20462;-78
2022/05/23 08:47:21;;;;;;;5.50;4.07;;;;;;;14.61;100.00;95549.47;4995120;28;20435;-78
2022/05/23 08:50:10;;;;;;;4.90;4.40;;;;;;;14.31;100.00;95469.09;4978708;28;20529;-78
2022/05/23 08:52:55;;;;;;;7.83;4.30;;;;;;;14.12;100.00;95433.66;5010993;28;20444;-78
2022/05/23 08:55:40;;;;;;;7.87;4.20;;;;;;;13.90;100.00;95402.78;5009177;28;20538;-78
2022/05/23 08:58:54;;;;;;;4.70;4.30;;;;;;;14.09;100.00;95442.38;4981466;28;20537;-77
2022/05/23 09:01:43;;;;;;;4.93;4.43;;;;;;;14.27;100.00;95474.38;4946366;28;20478;-79
2022/05/23 09:04:23;;;;;;;4.53;4.13;;;;;;;14.09;100.00;95434.41;5002402;28;20505;-78
2022/05/23 09:06:50;;;;;;;4.80;4.40;;;;;;;14.68;100.00;95483.00;5011591;28;20438;-79
2022/05/23 09:09:21;;;;;;;6.93;4.40;;;;;;;14.57;100.00;95449.50;5013388;28;20578;-79
2022/05/23 09:11:52;;;;;;;6.47;5.77;;;;;;;14.63;100.00;95477.28;5013984;28;20459;-80
2022/05/23 09:14:20;;;;;;;4.50;4.17;;;;;;;15.03;100.00;95509.00;5013575;28;20501;-80
2022/05/23 09:16:52;;;;;;;4.30;4.00;;;;;;;15.11;100.00;95503.72;4997716;28;20517;-79
2022/05/23 09:19:38;;;;;;;4.33;3.70;;;;;;;15.17;100.00;95497.66;4979608;28;20439;-78
2022/05/23 09:22:18;;;;;;;5.20;4.33;;;;;;;15.25;100.00;95496.53;5091503;28;20472;-80
2022/05/23 09:24:47;;;;;;;4.43;4.00;;;;;;;15.36;100.00;95499.25;5069084;28;20845;-80
2022/05/23 09:27:35;;;;;;;4.63;4.07;;;;;;;15.41;100.00;95493.53;5075105;28;20451;-79
2022/05/23 09:30:09;;;;;;;5.17;4.73;;;;;;;15.90;100.00;95497.44;5076087;28;20440;-78
2022/05/23 09:32:43;;;;;;;5.33;4.40;;;;;;;16.08;100.00;95476.84;5095150;28;20497;-80
2022/05/23 09:35:26;;;;;;;4.03;3.73;;;;;;;16.31;100.00;95487.13;5061572;28;20484;-80
2022/05/23 09:38:14;;;;;;;3.53;3.23;;;;;;;16.34;100.00;95504.28;5057830;28;20535;-80
2022/05/23 09:40:56;;;;;;;5.53;4.03;;;;;;;16.12;100.00;95506.19;5091970;28;20455;-81
2022/05/23 09:49:04;;;;;;;5.53;3.70;;;;;;;15.93;100.00;95507.34;5080803;28;20808;-82
2022/05/23 09:51:32;;;;;;;5.50;4.20;;;;;;;15.84;100.00;95502.38;5074986;28;20534;-82
2022/05/23 09:54:02;;;;;;;6.70;4.37;;;;;;;16.03;100.00;95543.16;5077352;28;20428;-82
2022/05/23 09:56:31;;;;;;;6.23;4.20;;;;;;;15.73;100.00;95512.25;5093406;28;20432;-81
2022/05/23 09:59:01;;;;;;;5.73;4.40;;;;;;;15.45;100.00;95474.88;5078813;28;20486;-82
2022/05/23 10:01:39;;;;;;;7.77;5.40;;;;;;;15.21;100.00;95447.81;5080155;28;20511;-81
2022/05/23 10:04:15;;;;;;;7.00;5.60;;;;;;;15.18;100.00;95408.63;5079767;28;20429;-81
2022/05/23 10:06:48;;;;;;;11.57;5.67;;;;;;;15.15;100.00;95457.31;5075476;28;20432;-82
2022/05/23 10:09:29;;;;;;;5.20;4.80;;;;;;;15.17;100.00;95435.63;5099056;28;20496;-82
2022/05/23 10:12:21;;;;;;;5.13;4.63;;;;;;;15.66;100.00;95465.06;5093736;28;21014;-82
2022/05/23 10:14:51;;;;;;;6.97;6.00;;;;;;;15.90;100.00;95466.22;5075077;28;20439;-82
2022/05/23 10:17:57;;;;;;;7.80;5.20;;;;;;;15.98;100.00;95471.53;5083913;28;20896;-82
2022/05/23 10:20:27;;;;;;;5.83;5.43;;;;;;;16.15;100.00;95466.16;5076037;28;20538;-82
2022/05/23 10:23:04;;;;;;;6.23;4.47;;;;;;;16.16;100.00;95461.59;5077299;28;20471;-83
2022/05/23 10:25:39;;;;;;;5.50;5.00;;;;;;;15.74;100.00;95447.16;5078456;28;20432;-81
2022/05/23 10:28:15;;;;;;;6.50;5.00;;;;;;;16.08;100.00;95478.75;5078544;28;20478;-83
2022/05/23 10:31:00;;;;;;;5.90;5.50;;;;;;;15.60;100.00;95378.63;5078528;28;20484;-83
2022/05/23 10:33:29;;;;;;;6.03;5.60;;;;;;;16.59;100.00;95472.22;5085876;28;20419;-82
2022/05/23 10:36:20;;;;;;;5.10;4.70;;;;;;;16.72;100.00;95492.78;5093821;28;20424;-81
2022/05/23 10:44:49;;;;;;;5.40;4.90;;;;;;;16.55;100.00;95496.97;5097730;28;20441;-80
2022/05/23 10:47:23;;;;;;;6.10;4.80;;;;;;;16.36;100.00;95493.97;5101665;28;20407;-81
2022/05/23 10:50:11;;;;;;;6.67;5.63;;;;;;;16.57;100.00;95491.28;5100801;28;20531;-79
2022/05/23 10:53:08;;;;;;;5.97;5.43;;;;;;;16.42;100.00;95501.19;5085548;28;20988;-80
2022/05/23 10:55:53;;;;;;;5.37;4.87;;;;;;;16.21;100.00;95498.56;5067797;28;20443;-79
2022/05/23 10:58:42;;;;;;;4.80;4.40;;;;;;;16.11;100.00;95459.31;5076937;28;20455;-80
2022/05/23 11:01:31;;;;;;;10.93;5.57;;;;;;;16.50;100.00;95493.94;5075773;28;20503;-78
2022/05/23 11:04:16;;;;;;;5.20;4.70;;;;;;;16.91;100.00;95501.50;5060000;28;20446;-80
2022/05/23 11:06:52;;;;;;;6.20;5.70;;;;;;;16.60;100.00;95487.81;5088504;28;20533;-78
2022/05/23 11:09:29;;;;;;;6.17;5.23;;;;;;;16.90;100.00;95487.38;5089908;28;20877;-80
2022/05/23 11:12:04;;;;;;;5.57;5.17;;;;;;;16.81;100.00;95490.44;5088239;28;20463;-79
2022/05/23 11:14:47;;;;;;;4.80;3.83;;;;;;;17.29;100.00;95468.50;5097509;28;20592;-78
2022/05/23 11:17:13;;;;;;;5.97;5.43;;;;;;;17.25;100.00;95493.72;5078400;28;20468;-78
2022/05/23 11:20:03;;;;;;;7.17;4.50;;;;;;;17.44;100.00;95483.28;5079070;28;20463;-79
2022/05/23 11:22:38;;;;;;;6.27;4.77;;;;;;;17.48;100.00;95485.19;5076437;28;20835;-79
2022/05/23 11:25:14;;;;;;;4.60;4.27;;;;;;;17.35;100.00;95493.66;5060793;28;20448;-78
2022/05/23 11:33:41;;;;;;;6.50;4.90;;;;;;;18.32;100.00;95496.44;5095398;28;20427;-80
2022/05/23 11:36:09;;;;;;;4.67;4.30;;;;;;;18.77;100.00;95499.84;5099848;28;20450;-80
2022/05/23 11:38:45;;;;;;;4.80;4.40;;;;;;;18.54;100.00;95503.09;5091595;28;20428;-78
2022/05/23 11:41:34;;;;;;;4.73;4.40;;;;;;;18.14;100.00;95463.72;5091418;28;20554;-78
2022/05/23 11:44:31;;;;;;;10.80;4.80;;;;;;;18.75;100.00;95510.19;5078272;28;20456;-79
2022/05/23 11:47:21;;;;;;;4.77;4.37;;;;;;;18.74;100.00;95511.34;5066687;28;20894;-79
2022/05/23 11:50:00;;;;;;;4.73;4.30;;;;;;;19.73;100.00;95493.28;5078483;28;20436;-78
2022/05/23 11:53:08;;;;;;;5.63;5.13;;;;;;;19.38;100.00;95499.88;5076972;28;20495;-78
2022/05/23 11:55:50;;;;;;;6.13;4.87;;;;;;;20.16;100.00;95505.25;5037851;28;20484;-81
2022/05/23 11:58:36;;;;;;;5.13;4.73;;;;;;;20.51;100.00;95512.00;5076631;28;20440;-78
2022/05/23 12:01:15;;;;;;;5.87;5.37;;;;;;;19.55;100.00;95495.47;5075132;28;20440;-79
2022/05/23 12:04:04;;;;;;;5.47;4.97;;;;;;;19.84;100.00;95481.63;5060139;28;20439;-78
2022/05/23 12:06:32;;;;;;;5.00;4.50;;;;;;;20.03;100.00;95491.66;5057639;28;20490;-78
2022/05/23 12:09:01;;;;;;;5.70;5.30;;;;;;;20.98;100.00;95490.44;5073790;28;20463;-78
2022/05/23 12:11:33;;;;;;;5.80;5.00;;;;;;;20.80;99.29;95490.75;5071507;28;20465;-76
2022/05/23 12:14:16;;;;;;;5.23;4.73;;;;;;;21.16;100.00;95493.50;5071376;28;20448;-76
2022/05/23 12:16:49;;;;;;;6.37;4.70;;;;;;;21.33;100.00;95494.34;5071411;28;20927;-76
2022/05/23 12:19:28;;;;;;;5.57;5.17;;;;;;;21.61;98.20;95506.41;5077253;28;20443;-77
2022/05/23 12:22:36;;;;;;;5.33;4.93;;;;;;;21.37;95.58;95489.63;5092840;28;20518;-76
2022/05/23 12:25:08;;;;;;;4.83;4.43;;;;;;;21.26;97.90;95494.50;4985826;28;20440;-77
2022/05/23 12:27:44;;;;;;;5.57;5.03;;;;;;;20.45;96.16;95490.25;5052230;28;20494;-77
2022/05/23 12:30:17;;;;;;;5.47;4.67;;;;;;;20.16;99.77;95484.56;5072685;28;20859;-76
2022/05/23 12:32:50;;;;;;;6.23;4.57;;;;;;;20.34;100.00;95476.22;5070929;28;20448;-76
2022/05/23 12:35:20;;;;;;;5.57;5.07;;;;;;;19.91;100.00;95476.16;5072213;28;20869;-76
2022/05/23 12:38:16;;;;;;;5.80;5.40;;;;;;;19.93;100.00;95479.19;5071842;28;20471;-77
2022/05/23 12:40:49;;;;;;;5.90;5.50;;;;;;;20.49;100.00;95466.00;5071797;28;20976;-78
2022/05/23 12:43:57;;;;;;;4.90;4.50;;;;;;;20.92;99.02;95463.25;5071295;28;20499;-77
2022/05/23 12:46:55;;;;;;;6.43;5.03;;;;;;;21.36;98.94;95464.66;5071522;28;20647;-78
2022/05/23 12:49:46;;;;;;;4.93;4.43;;;;;;;21.82;98.06;95457.50;5067319;28;20522;-77
2022/05/23 12:52:31;;;;;;;5.93;4.93;;;;;;;22.23;91.32;95454.22;5067902;28;20477;-77
2022/05/23 12:55:18;;;;;;;6.40;4.60;;;;;;;21.73;93.36;95451.94;5093459;28;20453;-76
2022/05/23 12:58:25;;;;;;;4.80;4.50;;;;;;;21.55;94.36;95444.28;5105025;28;20434;-76
2022/05/23 13:00:59;;;;;;;7.17;5.30;;;;;;;21.18;93.77;95442.75;5096892;28;20463;-77
2022/05/23 13:03:30;;;;;;;5.10;4.60;;;;;;;20.80;96.98;95418.97;5084560;28;20498;-77